Time;durP1;ratioP1;P1;durP2;ratioP2;P2;SDS_P1;SDS_P2;PMS_P1;PMS_P2;Temp;Humidity;BMP_temperature;BMP_pressure;BME280_temperature;BME280_humidity;BME280_pressure;Samples;Min_cycle;Max_cycle;Signal;HPM_P1;HPM_P2
2023/01/04 00:00:12;;;;;;;0.20;0.20;;;;;;;;;;4941463;29;20239;-65
2023/01/04 00:02:38;;;;;;;0.20;0.20;;;;;;;;;;4945697;29;20235;-66
2023/01/04 00:05:05;;;;;;;0.20;0.20;;;;;;;;;;4946621;29;20209;-66
2023/01/04 00:07:33;;;;;;;0.20;0.20;;;;;;;;;;4935801;29;20239;-66
2023/01/04 00:09:59;;;;;;;0.20;0.20;;;;;;;;;;4946814;29;20408;-66
2023/01/04 00:12:25;;;;;;;0.30;0.30;;;;;;;;;;4935625;29;20243;-66
2023/01/04 00:14:52;;;;;;;0.30;0.30;;;;;;;;;;4946424;29;20215;-66
2023/01/04 00:17:18;;;;;;;0.20;0.20;;;;;;;;;;4935230;29;20251;-66
2023/01/04 00:19:45;;;;;;;0.20;0.20;;;;;;;;;;4946807;29;20264;-66
2023/01/04 00:22:11;;;;;;;0.20;0.20;;;;;;;;;;4935346;29;20247;-66
2023/01/04 00:24:39;;;;;;;0.20;0.20;;;;;;;;;;4946448;29;20239;-66
2023/01/04 00:27:06;;;;;;;0.20;0.20;;;;;;;;;;4935392;29;20263;-66
2023/01/04 00:29:32;;;;;;;0.20;0.20;;;;;;;;;;4946325;29;20216;-66
2023/01/04 00:31:59;;;;;;;0.20;0.20;;;;;;;;;;4935514;29;20247;-67
2023/01/04 00:34:25;;;;;;;0.20;0.20;;;;;;;;;;4947747;29;20211;-67
2023/01/04 00:36:51;;;;;;;0.20;0.20;;;;;;;;;;4942199;29;20298;-66
2023/01/04 00:39:18;;;;;;;0.20;0.20;;;;;;;;;;4952787;29;20383;-66
2023/01/04 00:41:47;;;;;;;0.20;0.20;;;;;;;;;;4942011;29;20240;-67
2023/01/04 00:44:14;;;;;;;2.60;2.50;;;;;;;;;;4952256;29;20211;-67
2023/01/04 00:46:41;;;;;;;0.20;0.20;;;;;;;;;;4941996;29;20482;-66
2023/01/04 00:49:08;;;;;;;0.23;0.23;;;;;;;;;;4952494;29;20270;-66
2023/01/04 00:51:35;;;;;;;0.20;0.20;;;;;;;;;;4941874;29;20242;-67
2023/01/04 00:54:02;;;;;;;0.20;0.20;;;;;;;;;;4952400;29;20210;-66
2023/01/04 00:56:29;;;;;;;0.20;0.20;;;;;;;;;;4941740;29;20351;-66
2023/01/04 00:58:57;;;;;;;0.53;0.53;;;;;;;;;;4952268;29;20217;-70
2023/01/04 01:01:24;;;;;;;0.20;0.20;;;;;;;;;;4941923;29;20573;-66
2023/01/04 01:03:52;;;;;;;0.20;0.20;;;;;;;;;;4952215;29;20210;-66
2023/01/04 01:06:19;;;;;;;0.20;0.20;;;;;;;;;;4941779;29;20239;-66
2023/01/04 01:08:45;;;;;;;0.20;0.20;;;;;;;;;;4951961;29;20223;-66
2023/01/04 01:11:12;;;;;;;0.20;0.20;;;;;;;;;;4941955;29;20262;-66
2023/01/04 01:13:38;;;;;;;0.30;0.30;;;;;;;;;;4952072;29;20439;-67
2023/01/04 01:16:07;;;;;;;0.20;0.20;;;;;;;;;;4941980;29;20250;-66
2023/01/04 01:18:34;;;;;;;0.20;0.20;;;;;;;;;;4951621;29;20251;-66
2023/01/04 01:21:00;;;;;;;0.20;0.20;;;;;;;;;;4941908;29;20244;-67
2023/01/04 01:23:27;;;;;;;0.47;0.47;;;;;;;;;;4951834;29;20281;-67
2023/01/04 01:25:53;;;;;;;0.20;0.20;;;;;;;;;;4942046;29;20267;-66
2023/01/04 01:28:20;;;;;;;0.20;0.20;;;;;;;;;;4951517;29;20214;-67
2023/01/04 01:30:46;;;;;;;0.20;0.20;;;;;;;;;;4941978;29;20247;-66
2023/01/04 01:33:14;;;;;;;0.20;0.20;;;;;;;;;;4951648;29;20433;-67
2023/01/04 01:35:40;;;;;;;0.20;0.20;;;;;;;;;;4942019;29;20254;-66
2023/01/04 01:38:07;;;;;;;0.30;0.30;;;;;;;;;;4951569;29;20211;-66
2023/01/04 01:40:33;;;;;;;0.20;0.20;;;;;;;;;;4941954;29;20248;-67
2023/01/04 01:43:00;;;;;;;0.20;0.20;;;;;;;;;;4951376;29;20239;-68
2023/01/04 01:45:30;;;;;;;0.23;0.23;;;;;;;;;;4941616;29;20226;-66
2023/01/04 01:48:00;;;;;;;0.20;0.20;;;;;;;;;;4947814;29;20214;-66
2023/01/04 01:50:30;;;;;;;0.20;0.20;;;;;;;;;;4939077;29;20369;-67
2023/01/04 01:52:58;;;;;;;0.20;0.20;;;;;;;;;;4948255;29;20409;-67
2023/01/04 01:55:25;;;;;;;0.33;0.33;;;;;;;;;;4938943;29;20200;-66
2023/01/04 01:57:53;;;;;;;0.20;0.20;;;;;;;;;;4948076;29;20212;-66
2023/01/04 02:00:20;;;;;;;0.30;0.30;;;;;;;;;;4938881;29;20216;-66
2023/01/04 02:02:49;;;;;;;0.40;0.40;;;;;;;;;;4947777;29;20274;-67
2023/01/04 02:05:17;;;;;;;0.20;0.20;;;;;;;;;;4938681;29;20212;-67
2023/01/04 02:07:45;;;;;;;0.50;0.50;;;;;;;;;;4947811;29;20212;-67
2023/01/04 02:10:12;;;;;;;0.20;0.20;;;;;;;;;;4938717;29;20530;-65
2023/01/04 02:12:38;;;;;;;0.30;0.30;;;;;;;;;;4947447;29;20229;-66
2023/01/04 02:15:05;;;;;;;0.47;0.47;;;;;;;;;;4948423;29;20226;-67
2023/01/04 02:17:36;;;;;;;0.87;0.63;;;;;;;;;;4937243;29;20244;-66
2023/01/04 02:20:23;;;;;;;0.20;0.20;;;;;;;;;;4948548;29;20430;-66
2023/01/04 02:23:07;;;;;;;0.20;0.20;;;;;;;;;;4948422;29;20222;-67
2023/01/04 02:25:44;;;;;;;0.53;0.53;;;;;;;;;;4938186;29;20284;-66
2023/01/04 02:28:16;;;;;;;0.30;0.30;;;;;;;;;;4947685;29;20211;-67
2023/01/04 02:31:03;;;;;;;1.53;1.53;;;;;;;;;;4938291;29;20311;-66
2023/01/04 02:33:38;;;;;;;0.30;0.30;;;;;;;;;;4941573;29;20242;-67
2023/01/04 02:36:10;;;;;;;0.23;0.23;;;;;;;;;;4937861;29;20373;-66
2023/01/04 02:38:43;;;;;;;0.30;0.30;;;;;;;;;;4947782;29;20570;-67
2023/01/04 02:41:13;;;;;;;0.20;0.20;;;;;;;;;;4937721;29;20246;-66
2023/01/04 02:46:29;;;;;;;0.30;0.30;;;;;;;;;;4937544;29;20381;-66
2023/01/04 02:51:44;;;;;;;0.20;0.20;;;;;;;;;;4937206;29;20646;-67
2023/01/04 02:54:13;;;;;;;0.20;0.20;;;;;;;;;;4947864;29;20258;-66
2023/01/04 02:56:50;;;;;;;0.20;0.20;;;;;;;;;;4937148;29;20307;-66
2023/01/04 02:59:23;;;;;;;0.83;0.83;;;;;;;;;;4946623;29;20208;-66
2023/01/04 03:07:33;;;;;;;0.20;0.20;;;;;;;;;;4936767;29;20588;-66
2023/01/04 03:10:03;;;;;;;0.20;0.20;;;;;;;;;;4947858;29;20396;-67
2023/01/04 03:12:32;;;;;;;0.27;0.27;;;;;;;;;;4936496;29;20247;-66
2023/01/04 03:15:00;;;;;;;0.20;0.20;;;;;;;;;;4947709;29;20204;-68
2023/01/04 03:17:28;;;;;;;0.67;0.67;;;;;;;;;;4936312;29;20310;-67
2023/01/04 03:19:56;;;;;;;0.53;0.53;;;;;;;;;;4947469;29;20207;-67
2023/01/04 03:36:20;;;;;;;0.30;0.30;;;;;;;;;;4936639;29;20253;-67
2023/01/04 03:50:04;;;;;;;0.20;0.20;;;;;;;;;;4936793;29;20555;-66
2023/01/04 03:52:33;;;;;;;0.87;0.87;;;;;;;;;;4936047;29;20261;-66
2023/01/04 03:55:01;;;;;;;0.20;0.20;;;;;;;;;;4947024;29;20218;-66
2023/01/04 03:57:28;;;;;;;0.20;0.20;;;;;;;;;;4935876;29;20251;-67
2023/01/04 03:59:57;;;;;;;0.20;0.20;;;;;;;;;;4946633;29;20214;-68
2023/01/04 04:02:24;;;;;;;0.23;0.23;;;;;;;;;;4935650;29;20490;-70
2023/01/04 04:10:20;;;;;;;0.23;0.23;;;;;;;;;;4936249;29;20211;-67
2023/01/04 04:12:48;;;;;;;0.20;0.20;;;;;;;;;;4945848;29;20218;-68
2023/01/04 04:15:14;;;;;;;0.57;0.57;;;;;;;;;;4936340;29;20478;-67
2023/01/04 04:17:40;;;;;;;0.40;0.40;;;;;;;;;;4945248;29;20310;-66
2023/01/04 04:20:07;;;;;;;0.63;0.63;;;;;;;;;;4945393;29;20443;-66
2023/01/04 04:22:34;;;;;;;0.20;0.20;;;;;;;;;;4945360;29;20549;-67
2023/01/04 04:25:02;;;;;;;0.20;0.20;;;;;;;;;;4946726;29;20492;-67
2023/01/04 04:27:28;;;;;;;0.20;0.20;;;;;;;;;;4935525;29;20501;-67
2023/01/04 04:29:55;;;;;;;0.20;0.20;;;;;;;;;;4946602;29;20211;-68
2023/01/04 04:32:21;;;;;;;0.40;0.40;;;;;;;;;;4935472;29;20585;-67
2023/01/04 04:34:48;;;;;;;0.93;0.93;;;;;;;;;;4946326;29;20208;-67
2023/01/04 04:37:14;;;;;;;0.20;0.20;;;;;;;;;;4935143;29;20361;-67
2023/01/04 04:39:40;;;;;;;0.47;0.47;;;;;;;;;;4946458;29;20242;-66
2023/01/04 04:42:07;;;;;;;0.20;0.20;;;;;;;;;;4935261;29;20355;-65
2023/01/04 04:44:34;;;;;;;0.20;0.20;;;;;;;;;;4946247;29;20211;-67
2023/01/04 04:47:00;;;;;;;0.20;0.20;;;;;;;;;;4935434;29;20247;-66
2023/01/04 04:49:27;;;;;;;0.20;0.20;;;;;;;;;;4946132;29;20215;-67
2023/01/04 04:51:53;;;;;;;0.30;0.30;;;;;;;;;;4935419;29;20277;-67
2023/01/04 04:54:20;;;;;;;0.20;0.20;;;;;;;;;;4945785;29;20266;-66
2023/01/04 04:56:47;;;;;;;0.20;0.20;;;;;;;;;;4935436;29;20280;-67
2023/01/04 04:59:15;;;;;;;0.20;0.20;;;;;;;;;;4946037;29;20267;-66
2023/01/04 05:01:42;;;;;;;0.20;0.20;;;;;;;;;;4935191;29;20310;-66
2023/01/04 05:04:08;;;;;;;0.20;0.20;;;;;;;;;;4945676;29;20570;-66
2023/01/04 05:06:35;;;;;;;0.30;0.30;;;;;;;;;;4935253;29;20255;-66
2023/01/04 05:09:01;;;;;;;0.20;0.20;;;;;;;;;;4945620;29;20211;-67
2023/01/04 05:14:12;;;;;;;0.20;0.20;;;;;;;;;;4945940;29;20200;-67
2023/01/04 05:16:43;;;;;;;0.20;0.20;;;;;;;;;;4935339;29;20258;-66
2023/01/04 05:19:10;;;;;;;0.50;0.40;;;;;;;;;;4945449;29;20223;-67
2023/01/04 05:21:36;;;;;;;0.20;0.20;;;;;;;;;;4936259;29;20267;-66
2023/01/04 05:24:03;;;;;;;0.23;0.23;;;;;;;;;;4949268;29;20299;-67
2023/01/04 05:26:29;;;;;;;0.20;0.20;;;;;;;;;;4938856;29;20260;-67
2023/01/04 05:28:56;;;;;;;0.20;0.20;;;;;;;;;;4949262;29;20468;-67
2023/01/04 05:31:21;;;;;;;0.23;0.23;;;;;;;;;;4938878;29;20262;-67
2023/01/04 05:33:49;;;;;;;0.30;0.30;;;;;;;;;;4948846;29;20204;-67
2023/01/04 05:36:16;;;;;;;0.20;0.20;;;;;;;;;;4938907;29;20306;-67
2023/01/04 05:38:42;;;;;;;0.20;0.20;;;;;;;;;;4949104;29;20532;-67
2023/01/04 05:42:24;;;;;;;0.20;0.20;;;;;;;;;;4938604;29;20255;-67
2023/01/04 05:43:55;;;;;;;0.20;0.20;;;;;;;;;;4948480;29;20275;-67
2023/01/04 05:46:21;;;;;;;0.20;0.20;;;;;;;;;;4938491;29;20302;-67
2023/01/04 05:48:49;;;;;;;0.20;0.20;;;;;;;;;;4948705;29;20428;-67
2023/01/04 05:51:15;;;;;;;0.30;0.30;;;;;;;;;;4938398;29;20243;-67
2023/01/04 05:53:42;;;;;;;0.20;0.20;;;;;;;;;;4948542;29;20503;-67
2023/01/04 05:56:08;;;;;;;2.27;2.10;;;;;;;;;;4938550;29;20487;-67
2023/01/04 05:58:35;;;;;;;0.20;0.20;;;;;;;;;;4948370;29;20274;-68
2023/01/04 06:01:01;;;;;;;0.17;0.17;;;;;;;;;;4938442;29;20314;-67
2023/01/04 06:03:30;;;;;;;0.60;0.60;;;;;;;;;;4948096;29;20238;-67
2023/01/04 06:05:58;;;;;;;0.13;0.13;;;;;;;;;;4938422;29;20244;-67
2023/01/04 06:08:24;;;;;;;0.30;0.30;;;;;;;;;;4948121;29;20246;-67
2023/01/04 06:10:56;;;;;;;0.40;0.40;;;;;;;;;;4938436;29;20464;-66
2023/01/04 06:13:22;;;;;;;0.20;0.20;;;;;;;;;;4948051;29;20232;-66
2023/01/04 06:15:49;;;;;;;0.20;0.20;;;;;;;;;;4938264;29;20250;-66
2023/01/04 06:18:15;;;;;;;0.70;0.70;;;;;;;;;;4947564;29;20287;-66
2023/01/04 06:20:42;;;;;;;0.20;0.20;;;;;;;;;;4938247;29;20244;-67
2023/01/04 06:23:10;;;;;;;0.20;0.20;;;;;;;;;;4947766;29;20415;-66
2023/01/04 06:25:37;;;;;;;0.40;0.40;;;;;;;;;;4938464;29;20316;-66
2023/01/04 06:28:03;;;;;;;0.40;0.40;;;;;;;;;;4947690;29;20511;-66
2023/01/04 06:30:30;;;;;;;0.23;0.23;;;;;;;;;;4938168;29;20319;-66
2023/01/04 06:32:56;;;;;;;0.73;0.70;;;;;;;;;;4947156;29;20208;-67
2023/01/04 06:35:22;;;;;;;0.10;0.10;;;;;;;;;;4938167;29;20239;-66
2023/01/04 06:37:49;;;;;;;0.20;0.20;;;;;;;;;;4947311;29;20459;-66
2023/01/04 06:40:16;;;;;;;0.20;0.20;;;;;;;;;;4938297;29;20460;-66
2023/01/04 06:42:46;;;;;;;0.20;0.20;;;;;;;;;;4947199;29;20218;-66
2023/01/04 06:45:12;;;;;;;4.50;0.80;;;;;;;;;;4938333;29;20207;-66
2023/01/04 06:47:40;;;;;;;0.20;0.20;;;;;;;;;;4947143;29;20424;-67
2023/01/04 06:50:06;;;;;;;0.20;0.20;;;;;;;;;;4948068;29;20528;-67
2023/01/04 06:52:33;;;;;;;0.57;0.53;;;;;;;;;;4936935;29;20233;-68
2023/01/04 06:54:59;;;;;;;0.23;0.23;;;;;;;;;;4947767;29;20272;-66
2023/01/04 06:57:27;;;;;;;0.20;0.20;;;;;;;;;;4936822;29;20606;-66
2023/01/04 06:59:53;;;;;;;0.73;0.73;;;;;;;;;;4947655;29;20208;-66
2023/01/04 07:02:20;;;;;;;0.93;0.93;;;;;;;;;;4936859;29;20303;-66
2023/01/04 07:04:46;;;;;;;0.20;0.20;;;;;;;;;;4947526;29;20267;-66
2023/01/04 07:07:12;;;;;;;0.20;0.20;;;;;;;;;;4936699;29;20315;-66
2023/01/04 07:09:39;;;;;;;0.20;0.20;;;;;;;;;;4947886;29;20278;-66
2023/01/04 07:12:05;;;;;;;0.20;0.20;;;;;;;;;;4936710;29;20255;-66
2023/01/04 07:14:33;;;;;;;0.93;0.93;;;;;;;;;;4947439;29;20270;-66
2023/01/04 07:17:00;;;;;;;0.20;0.20;;;;;;;;;;4936405;29;20272;-66
2023/01/04 07:19:26;;;;;;;0.20;0.20;;;;;;;;;;4947274;29;20216;-66
2023/01/04 07:21:53;;;;;;;0.30;0.30;;;;;;;;;;4936733;29;20260;-66
2023/01/04 07:24:19;;;;;;;0.93;0.93;;;;;;;;;;4947194;29;20303;-66
2023/01/04 07:26:46;;;;;;;0.20;0.20;;;;;;;;;;4936522;29;20245;-66
2023/01/04 07:29:16;;;;;;;0.20;0.20;;;;;;;;;;4947294;29;20550;-67
2023/01/04 07:31:45;;;;;;;0.20;0.20;;;;;;;;;;4936478;29;20551;-67
2023/01/04 07:34:12;;;;;;;0.40;0.40;;;;;;;;;;4946872;29;20279;-67
2023/01/04 07:36:39;;;;;;;0.20;0.20;;;;;;;;;;4936326;29;20262;-67
2023/01/04 07:39:05;;;;;;;0.53;0.53;;;;;;;;;;4946773;29;20215;-67
2023/01/04 07:41:31;;;;;;;1.50;0.87;;;;;;;;;;4936343;29;20259;-67
2023/01/04 07:44:00;;;;;;;0.20;0.20;;;;;;;;;;4946165;29;20295;-67
2023/01/04 07:46:26;;;;;;;1.00;0.43;;;;;;;;;;4936284;29;20248;-68
2023/01/04 07:48:54;;;;;;;0.20;0.20;;;;;;;;;;4946435;29;20283;-68
2023/01/04 07:51:20;;;;;;;0.20;0.20;;;;;;;;;;4936264;29;20319;-66
2023/01/04 07:53:47;;;;;;;0.47;0.47;;;;;;;;;;4946563;29;20235;-70
2023/01/04 07:56:13;;;;;;;0.20;0.20;;;;;;;;;;4936306;29;20314;-68
2023/01/04 07:58:40;;;;;;;0.20;0.20;;;;;;;;;;4946421;29;20215;-69
2023/01/04 08:01:07;;;;;;;0.20;0.20;;;;;;;;;;4936407;29;20252;-69
2023/01/04 08:03:33;;;;;;;0.20;0.20;;;;;;;;;;4946099;29;20302;-67
2023/01/04 08:06:04;;;;;;;0.20;0.20;;;;;;;;;;4936255;29;20306;-67
2023/01/04 08:08:30;;;;;;;0.30;0.30;;;;;;;;;;4946213;29;20213;-67
2023/01/04 08:11:00;;;;;;;0.20;0.20;;;;;;;;;;4936311;29;20322;-66
2023/01/04 08:13:26;;;;;;;0.20;0.20;;;;;;;;;;4945945;29;20259;-67
2023/01/04 08:15:53;;;;;;;0.20;0.20;;;;;;;;;;4936270;29;20254;-67
2023/01/04 08:18:19;;;;;;;0.20;0.20;;;;;;;;;;4945688;29;20251;-67
2023/01/04 08:20:46;;;;;;;0.20;0.20;;;;;;;;;;4936216;29;20243;-67
2023/01/04 08:23:16;;;;;;;0.30;0.30;;;;;;;;;;4945783;29;20239;-66
2023/01/04 08:25:43;;;;;;;0.20;0.20;;;;;;;;;;4936349;29;20319;-67
2023/01/04 08:28:09;;;;;;;0.20;0.20;;;;;;;;;;4946047;29;20235;-66
2023/01/04 08:30:37;;;;;;;0.30;0.30;;;;;;;;;;4936985;29;20246;-66
2023/01/04 08:33:12;;;;;;;0.20;0.20;;;;;;;;;;4945885;29;20271;-67
2023/01/04 08:35:38;;;;;;;0.50;0.50;;;;;;;;;;4936283;29;20306;-66
2023/01/04 08:38:04;;;;;;;0.73;0.73;;;;;;;;;;4945394;29;20207;-66
2023/01/04 08:40:32;;;;;;;0.20;0.20;;;;;;;;;;4936194;29;20250;-66
2023/01/04 08:42:58;;;;;;;0.53;0.53;;;;;;;;;;4945490;29;20290;-66
2023/01/04 08:45:25;;;;;;;0.57;0.33;;;;;;;;;;4935998;29;20255;-66
2023/01/04 08:47:51;;;;;;;1.27;0.90;;;;;;;;;;4945310;29;20280;-67
2023/01/04 08:50:19;;;;;;;0.40;0.40;;;;;;;;;;4936080;29;20243;-67
2023/01/04 08:52:45;;;;;;;0.20;0.20;;;;;;;;;;4945142;29;20216;-67
2023/01/04 08:55:12;;;;;;;0.20;0.20;;;;;;;;;;4936467;29;20235;-66
2023/01/04 08:57:39;;;;;;;0.20;0.20;;;;;;;;;;4949019;29;20274;-67
2023/01/04 09:00:06;;;;;;;0.87;0.87;;;;;;;;;;4949769;29;20232;-67
2023/01/04 09:02:33;;;;;;;0.10;0.10;;;;;;;;;;4938873;29;20223;-67
2023/01/04 09:05:01;;;;;;;0.20;0.20;;;;;;;;;;4949663;29;20241;-68
2023/01/04 09:07:28;;;;;;;0.20;0.20;;;;;;;;;;4938787;29;20294;-66
2023/01/04 09:09:54;;;;;;;0.20;0.20;;;;;;;;;;4949604;29;20235;-67
2023/01/04 09:12:21;;;;;;;0.20;0.20;;;;;;;;;;4938627;29;20258;-67
2023/01/04 09:14:48;;;;;;;0.30;0.30;;;;;;;;;;4949816;29;20277;-67
2023/01/04 09:17:15;;;;;;;0.20;0.20;;;;;;;;;;4938368;29;20320;-66
2023/01/04 09:19:41;;;;;;;0.50;0.50;;;;;;;;;;4949753;29;20491;-67
2023/01/04 09:22:08;;;;;;;0.20;0.20;;;;;;;;;;4938478;29;20314;-67
2023/01/04 09:24:34;;;;;;;0.20;0.20;;;;;;;;;;4949537;29;20233;-67
2023/01/04 09:27:01;;;;;;;0.20;0.20;;;;;;;;;;4938386;29;20568;-66
2023/01/04 09:29:27;;;;;;;0.20;0.20;;;;;;;;;;4949331;29;20297;-66
2023/01/04 09:31:56;;;;;;;0.33;0.33;;;;;;;;;;4938553;29;20290;-66
2023/01/04 09:34:22;;;;;;;0.20;0.20;;;;;;;;;;4949020;29;20205;-66
2023/01/04 09:36:49;;;;;;;0.20;0.20;;;;;;;;;;4938527;29;20562;-66
2023/01/04 09:39:16;;;;;;;0.20;0.20;;;;;;;;;;4949160;29;20433;-66
2023/01/04 09:41:45;;;;;;;0.20;0.20;;;;;;;;;;4938474;29;20271;-66
2023/01/04 09:44:17;;;;;;;0.20;0.20;;;;;;;;;;4948906;29;20266;-65
2023/01/04 09:46:45;;;;;;;0.23;0.23;;;;;;;;;;4938332;29;20251;-67
2023/01/04 09:49:16;;;;;;;0.30;0.30;;;;;;;;;;4949014;29;20215;-67
2023/01/04 09:51:45;;;;;;;0.10;0.10;;;;;;;;;;4938307;29;20492;-68
2023/01/04 09:54:15;;;;;;;0.63;0.30;;;;;;;;;;4948758;29;20291;-69
2023/01/04 09:56:44;;;;;;;0.20;0.20;;;;;;;;;;4938186;29;20243;-68
2023/01/04 09:59:14;;;;;;;0.20;0.20;;;;;;;;;;4948707;29;20215;-68
2023/01/04 10:01:43;;;;;;;0.20;0.20;;;;;;;;;;4938309;29;20253;-68
2023/01/04 10:04:14;;;;;;;0.20;0.20;;;;;;;;;;4948462;29;20422;-68
2023/01/04 10:06:42;;;;;;;0.20;0.20;;;;;;;;;;4937566;29;20255;-67
2023/01/04 10:09:11;;;;;;;0.20;0.20;;;;;;;;;;4948034;29;20213;-68
2023/01/04 10:11:45;;;;;;;0.20;0.20;;;;;;;;;;4938024;29;20243;-70
2023/01/04 10:14:25;;;;;;;0.40;0.40;;;;;;;;;;4948516;29;20422;-68
2023/01/04 10:16:59;;;;;;;0.20;0.20;;;;;;;;;;4937692;29;20501;-69
2023/01/04 10:19:33;;;;;;;0.20;0.20;;;;;;;;;;4948655;29;20197;-67
2023/01/04 10:22:03;;;;;;;0.20;0.20;;;;;;;;;;4937553;29;20265;-68
2023/01/04 10:24:35;;;;;;;0.30;0.30;;;;;;;;;;4948118;29;20238;-67
2023/01/04 10:27:07;;;;;;;0.20;0.20;;;;;;;;;;4937440;29;20309;-69
2023/01/04 10:29:43;;;;;;;0.20;0.20;;;;;;;;;;4948265;29;20232;-68
2023/01/04 10:32:16;;;;;;;0.20;0.20;;;;;;;;;;4937148;29;20307;-69
2023/01/04 10:34:43;;;;;;;0.20;0.20;;;;;;;;;;4948476;29;20523;-69
2023/01/04 10:37:13;;;;;;;0.20;0.20;;;;;;;;;;4937131;29;20251;-68
2023/01/04 10:39:40;;;;;;;0.20;0.20;;;;;;;;;;4948330;29;20405;-69
2023/01/04 10:42:11;;;;;;;0.23;0.23;;;;;;;;;;4936956;29;20316;-69
2023/01/04 10:44:40;;;;;;;0.20;0.20;;;;;;;;;;4948089;29;20239;-69
2023/01/04 10:47:10;;;;;;;0.20;0.20;;;;;;;;;;4937001;29;20309;-69
2023/01/04 10:49:41;;;;;;;0.20;0.20;;;;;;;;;;4947869;29;20214;-68
2023/01/04 10:52:09;;;;;;;0.83;0.83;;;;;;;;;;4936944;29;20248;-69
2023/01/04 10:54:40;;;;;;;0.13;0.13;;;;;;;;;;4948073;29;20204;-69
2023/01/04 10:57:10;;;;;;;0.20;0.20;;;;;;;;;;4936955;29;20309;-69
2023/01/04 10:59:38;;;;;;;0.20;0.20;;;;;;;;;;4947955;29;20246;-69
2023/01/04 11:02:10;;;;;;;0.20;0.20;;;;;;;;;;4936984;29;20252;-69
2023/01/04 11:04:39;;;;;;;0.20;0.20;;;;;;;;;;4947794;29;20398;-69
2023/01/04 11:07:07;;;;;;;0.20;0.20;;;;;;;;;;4936568;29;20251;-69
2023/01/04 11:09:38;;;;;;;0.20;0.20;;;;;;;;;;4947781;29;20277;-70
2023/01/04 11:12:06;;;;;;;0.20;0.20;;;;;;;;;;4936594;29;20245;-69
2023/01/04 11:14:32;;;;;;;0.20;0.20;;;;;;;;;;4947416;29;20240;-69
2023/01/04 11:17:00;;;;;;;0.20;0.20;;;;;;;;;;4936408;29;20259;-69
2023/01/04 11:19:27;;;;;;;0.20;0.20;;;;;;;;;;4946530;29;20273;-69
2023/01/04 11:21:57;;;;;;;0.17;0.17;;;;;;;;;;4936637;29;20317;-66
2023/01/04 11:24:24;;;;;;;0.20;0.20;;;;;;;;;;4947393;29;20409;-67
2023/01/04 11:26:51;;;;;;;0.20;0.20;;;;;;;;;;4936388;29;20259;-67
2023/01/04 11:29:26;;;;;;;0.20;0.20;;;;;;;;;;4947165;29;20245;-67
2023/01/04 11:31:55;;;;;;;0.30;0.30;;;;;;;;;;4936389;29;20266;-67
2023/01/04 11:34:43;;;;;;;0.10;0.10;;;;;;;;;;4946874;29;20243;-67
2023/01/04 11:37:22;;;;;;;0.20;0.20;;;;;;;;;;4936080;29;20453;-67
2023/01/04 11:39:49;;;;;;;0.10;0.10;;;;;;;;;;4946998;29;20196;-67
2023/01/04 11:42:19;;;;;;;0.30;0.30;;;;;;;;;;4935975;29;20271;-67
2023/01/04 11:44:57;;;;;;;0.63;0.63;;;;;;;;;;4946784;29;20229;-67
2023/01/04 11:47:24;;;;;;;0.20;0.20;;;;;;;;;;4935994;29;20304;-67
2023/01/04 11:49:51;;;;;;;0.20;0.20;;;;;;;;;;4946777;29;20209;-67
2023/01/04 11:52:30;;;;;;;0.20;0.20;;;;;;;;;;4935535;29;20311;-66
2023/01/04 11:54:57;;;;;;;0.20;0.20;;;;;;;;;;4946974;29;20526;-67
2023/01/04 11:57:23;;;;;;;0.23;0.23;;;;;;;;;;4935730;29;20272;-67
2023/01/04 12:00:07;;;;;;;0.20;0.20;;;;;;;;;;4946868;29;20448;-66
2023/01/04 12:02:33;;;;;;;0.20;0.20;;;;;;;;;;4935769;29;20261;-67
2023/01/04 12:05:00;;;;;;;0.67;0.67;;;;;;;;;;4946453;29;20259;-66
2023/01/04 12:07:28;;;;;;;0.20;0.20;;;;;;;;;;4935582;29;20461;-67
2023/01/04 12:09:55;;;;;;;0.20;0.20;;;;;;;;;;4946768;29;20246;-67
2023/01/04 12:12:21;;;;;;;0.20;0.20;;;;;;;;;;4935534;29;20480;-67
2023/01/04 12:14:48;;;;;;;0.20;0.20;;;;;;;;;;4946699;29;20409;-67
2023/01/04 12:17:19;;;;;;;0.30;0.30;;;;;;;;;;4935338;29;20328;-66
2023/01/04 12:19:47;;;;;;;0.20;0.20;;;;;;;;;;4946424;29;20240;-67
2023/01/04 12:22:19;;;;;;;0.20;0.20;;;;;;;;;;4935365;29;20276;-68
2023/01/04 12:24:46;;;;;;;0.40;0.40;;;;;;;;;;4946260;29;20222;-68
2023/01/04 12:27:13;;;;;;;0.20;0.20;;;;;;;;;;4935333;29;20244;-66
2023/01/04 12:30:00;;;;;;;1.07;0.50;;;;;;;;;;4946111;29;20232;-68
2023/01/04 12:32:45;;;;;;;0.20;0.20;;;;;;;;;;4930294;29;20606;-67
2023/01/04 12:35:30;;;;;;;0.20;0.20;;;;;;;;;;4936173;29;20211;-66
2023/01/04 12:37:56;;;;;;;0.10;0.10;;;;;;;;;;4945416;29;20219;-68
2023/01/04 12:40:41;;;;;;;0.20;0.20;;;;;;;;;;4936280;29;20217;-68
2023/01/04 12:43:18;;;;;;;0.23;0.23;;;;;;;;;;4945547;29;20275;-67
2023/01/04 12:45:45;;;;;;;0.47;0.47;;;;;;;;;;4935785;29;20264;-69
2023/01/04 12:51:19;;;;;;;0.80;0.80;;;;;;;;;;4935514;29;20268;-67
2023/01/04 12:53:50;;;;;;;0.20;0.20;;;;;;;;;;4945764;29;20244;-67
2023/01/04 12:56:16;;;;;;;0.20;0.20;;;;;;;;;;4935562;29;20239;-67
2023/01/04 12:59:04;;;;;;;0.20;0.20;;;;;;;;;;4945724;29;20260;-67
2023/01/04 13:01:30;;;;;;;0.20;0.20;;;;;;;;;;4935530;29;20309;-67
2023/01/04 13:03:58;;;;;;;0.20;0.20;;;;;;;;;;5171408;23;20259;-65
2023/01/04 13:06:29;;;;;;;0.40;0.40;;;;;;;;;;4945291;28;20254;-65
2023/01/04 13:08:55;;;;;;;0.20;0.20;;;;;;;;;;4950897;29;20244;-65
2023/01/04 13:11:40;;;;;;;0.10;0.10;;;;;;;;;;4945063;28;20271;-65
2023/01/04 13:14:08;;;;;;;0.10;0.10;;;;;;;;;;4949223;29;20416;-65
2023/01/04 13:16:41;;;;;;;0.20;0.20;;;;;;;;;;4946761;28;20264;-66
2023/01/04 13:19:10;;;;;;;0.10;0.10;;;;;;;;;;4949295;29;20211;-66
2023/01/04 13:21:40;;;;;;;0.10;0.10;;;;;;;;;;4946728;28;20323;-63
2023/01/04 13:24:17;;;;;;;0.10;0.10;;;;;;;;;;4949477;29;20531;-67
2023/01/04 13:26:47;;;;;;;0.20;0.20;;;;;;;;;;4947676;28;20252;-63
2023/01/04 13:29:15;;;;;;;0.87;0.87;;;;;;;;;;4948405;29;20276;-63
2023/01/04 13:31:45;;;;;;;0.10;0.10;;;;;;;;;;4947321;28;20243;-63
2023/01/04 13:34:15;;;;;;;0.17;0.17;;;;;;;;;;4948342;29;20412;-62
2023/01/04 13:36:43;;;;;;;0.53;0.53;;;;;;;;;;4947633;28;20580;-64
2023/01/04 13:39:11;;;;;;;0.33;0.33;;;;;;;;;;4948757;29;20281;-64
2023/01/04 13:41:37;;;;;;;0.20;0.20;;;;;;;;;;4946965;28;20243;-64
2023/01/04 13:44:07;;;;;;;0.10;0.10;;;;;;;;;;4952569;29;20233;-64
2023/01/04 13:46:34;;;;;;;0.10;0.10;;;;;;;;;;4949921;28;20267;-65
2023/01/04 13:49:01;;;;;;;0.30;0.30;;;;;;;;;;4953185;29;20208;-64
2023/01/04 13:51:33;;;;;;;0.30;0.30;;;;;;;;;;4949079;28;20252;-64
2023/01/04 13:54:02;;;;;;;0.20;0.20;;;;;;;;;;4953335;29;20209;-66
2023/01/04 13:56:30;;;;;;;0.20;0.20;;;;;;;;;;4949096;28;20244;-66
2023/01/04 13:58:56;;;;;;;0.20;0.20;;;;;;;;;;4953210;29;20215;-68
2023/01/04 14:01:24;;;;;;;0.10;0.10;;;;;;;;;;4948133;28;20260;-68
2023/01/04 14:03:52;;;;;;;0.20;0.20;;;;;;;;;;4953901;29;20309;-68
2023/01/04 14:06:21;;;;;;;0.50;0.50;;;;;;;;;;4948135;28;20615;-68
2023/01/04 14:08:56;;;;;;;0.20;0.20;;;;;;;;;;4954553;29;20403;-68
2023/01/04 14:14:19;;;;;;;0.80;0.80;;;;;;;;;;4951760;29;20214;-69
2023/01/04 14:16:45;;;;;;;0.20;0.20;;;;;;;;;;4951062;29;20243;-68
2023/01/04 14:19:40;;;;;;;0.13;0.13;;;;;;;;;;4951301;29;20281;-68
2023/01/04 14:22:28;;;;;;;0.20;0.20;;;;;;;;;;4953204;29;20256;-68
2023/01/04 14:24:58;;;;;;;0.40;0.40;;;;;;;;;;4948506;29;20548;-66
2023/01/04 14:27:36;;;;;;;0.20;0.20;;;;;;;;;;4953568;29;20303;-67
2023/01/04 14:30:13;;;;;;;0.20;0.20;;;;;;;;;;4948523;29;20197;-67
2023/01/04 14:32:40;;;;;;;0.30;0.30;;;;;;;;;;4939856;29;20236;-67
2023/01/04 14:35:11;;;;;;;0.20;0.20;;;;;;;;;;4946814;29;20240;-68
2023/01/04 14:37:38;;;;;;;0.10;0.10;;;;;;;;;;4962543;29;20230;-68
2023/01/04 14:40:13;;;;;;;0.20;0.20;;;;;;;;;;4948083;29;20210;-68
2023/01/04 14:42:41;;;;;;;0.13;0.13;;;;;;;;;;4940660;29;20232;-67
2023/01/04 14:45:11;;;;;;;0.20;0.20;;;;;;;;;;4941997;29;20469;-67
2023/01/04 14:47:38;;;;;;;0.20;0.20;;;;;;;;;;4962263;29;20292;-67
2023/01/04 14:50:05;;;;;;;1.10;0.93;;;;;;;;;;4948280;29;20475;-66
2023/01/04 14:52:31;;;;;;;0.13;0.13;;;;;;;;;;4937129;29;20211;-68
2023/01/04 14:55:03;;;;;;;0.20;0.20;;;;;;;;;;4947820;29;20213;-67
2023/01/04 14:57:29;;;;;;;0.20;0.20;;;;;;;;;;4953142;28;20314;-67
2023/01/04 14:59:57;;;;;;;0.10;0.10;;;;;;;;;;4947813;29;20299;-68
2023/01/04 15:02:25;;;;;;;0.20;0.20;;;;;;;;;;4952763;29;20256;-67
2023/01/04 15:04:52;;;;;;;0.20;0.20;;;;;;;;;;4947561;29;20295;-67
2023/01/04 15:07:32;;;;;;;0.10;0.10;;;;;;;;;;4952719;28;20312;-67
2023/01/04 15:10:01;;;;;;;0.20;0.20;;;;;;;;;;4948000;29;20441;-67
2023/01/04 15:12:27;;;;;;;0.33;0.33;;;;;;;;;;4952839;28;20255;-66
2023/01/04 15:14:54;;;;;;;0.20;0.20;;;;;;;;;;4947466;29;20210;-67
2023/01/04 15:17:21;;;;;;;0.20;0.20;;;;;;;;;;4952598;28;20317;-68
2023/01/04 15:19:49;;;;;;;0.30;0.30;;;;;;;;;;4947732;29;20513;-69
2023/01/04 15:22:15;;;;;;;0.43;0.43;;;;;;;;;;4952599;28;20252;-67
2023/01/04 15:24:42;;;;;;;0.10;0.10;;;;;;;;;;4947348;29;20215;-67
2023/01/04 15:27:08;;;;;;;0.30;0.30;;;;;;;;;;4952494;29;20242;-68
2023/01/04 15:29:35;;;;;;;0.20;0.20;;;;;;;;;;4947208;29;20216;-67
2023/01/04 15:32:01;;;;;;;0.20;0.20;;;;;;;;;;4951229;28;20261;-67
2023/01/04 15:34:29;;;;;;;0.20;0.20;;;;;;;;;;4948164;29;20240;-67
2023/01/04 15:36:55;;;;;;;0.20;0.20;;;;;;;;;;4950573;29;20264;-67
2023/01/04 15:39:21;;;;;;;0.10;0.10;;;;;;;;;;4948725;29;20445;-66
2023/01/04 15:44:32;;;;;;;0.63;0.60;;;;;;;;;;4947130;29;20197;-67